Time;durP1;ratioP1;P1;durP2;ratioP2;P2;SDS_P1;SDS_P2;PMS_P1;PMS_P2;Temp;Humidity;BMP_temperature;BMP_pressure;BME280_temperature;BME280_humidity;BME280_pressure;Samples;Min_cycle;Max_cycle;Signal;HPM_P1;HPM_P2
2023/06/23 00:01:00;;;;;;;15.75;11.32;;;17.80;99.90;;;;;;5073623;28;20166;-70
2023/06/23 00:03:26;;;;;;;16.10;11.40;;;17.90;99.90;;;;;;5073495;28;20048;-70
2023/06/23 00:05:51;;;;;;;14.93;10.77;;;17.80;99.90;;;;;;5074101;28;20442;-70
2023/06/23 00:08:17;;;;;;;18.55;10.80;;;17.90;99.90;;;;;;5073756;28;20108;-71
2023/06/23 00:10:48;;;;;;;16.92;11.70;;;18.00;99.90;;;;;;5073434;28;20041;-70
2023/06/23 00:13:13;;;;;;;15.95;11.25;;;17.80;99.90;;;;;;5073784;28;20108;-70
2023/06/23 00:15:39;;;;;;;15.25;11.77;;;18.00;99.90;;;;;;5073797;28;20059;-70
2023/06/23 00:18:05;;;;;;;15.38;10.85;;;17.90;99.90;;;;;;5073163;28;20040;-70
2023/06/23 00:20:31;;;;;;;14.00;10.63;;;18.10;99.90;;;;;;5073434;28;20037;-70
2023/06/23 00:22:56;;;;;;;14.95;11.07;;;17.80;99.90;;;;;;5055831;28;20040;-70
2023/06/23 00:25:23;;;;;;;13.43;10.90;;;18.00;99.90;;;;;;5073649;28;20083;-70
2023/06/23 00:27:49;;;;;;;16.83;11.70;;;18.00;99.90;;;;;;5055200;28;20044;-70
2023/06/23 00:30:15;;;;;;;17.15;10.90;;;18.00;99.90;;;;;;5073140;28;20194;-70
2023/06/23 00:32:41;;;;;;;12.77;9.85;;;18.00;99.90;;;;;;5073181;28;20068;-70
2023/06/23 00:35:08;;;;;;;11.65;9.73;;;17.90;99.90;;;;;;5073522;28;20045;-70
2023/06/23 00:37:37;;;;;;;12.88;10.30;;;17.90;99.90;;;;;;5073079;28;20512;-70
2023/06/23 00:40:15;;;;;;;11.85;9.60;;;17.90;99.90;;;;;;5055088;28;20722;-70
2023/06/23 00:42:48;;;;;;;12.48;9.55;;;17.80;99.90;;;;;;5072941;28;20043;-70
2023/06/23 00:45:14;;;;;;;13.93;9.38;;;17.90;99.90;;;;;;5073151;28;20148;-70
2023/06/23 00:47:44;;;;;;;12.65;9.20;;;17.70;99.90;;;;;;5055107;28;20105;-70
2023/06/23 00:50:14;;;;;;;13.85;10.15;;;17.90;99.90;;;;;;5072855;28;20036;-70
2023/06/23 00:52:39;;;;;;;12.82;9.75;;;17.80;99.90;;;;;;5073016;28;20056;-70
2023/06/23 00:55:06;;;;;;;15.00;9.68;;;17.70;99.90;;;;;;5072890;28;20044;-70
2023/06/23 00:57:33;;;;;;;17.42;10.35;;;17.90;99.90;;;;;;5054686;28;20043;-70
2023/06/23 00:59:59;;;;;;;13.35;9.05;;;17.90;99.90;;;;;;5072460;28;20043;-70
2023/06/23 01:02:27;;;;;;;14.80;9.68;;;17.70;99.90;;;;;;5072828;28;20512;-70
2023/06/23 01:04:53;;;;;;;12.50;8.98;;;17.80;99.90;;;;;;5054748;28;20585;-69
2023/06/23 01:07:46;;;;;;;12.20;8.75;;;17.70;99.90;;;;;;5072486;28;20040;-70
2023/06/23 01:10:26;;;;;;;12.30;8.95;;;17.80;99.90;;;;;;5054340;28;20040;-69
2023/06/23 01:13:18;;;;;;;14.02;8.00;;;17.70;99.90;;;;;;5072712;28;20064;-69
2023/06/23 01:16:06;;;;;;;11.32;7.85;;;17.80;99.90;;;;;;5054691;28;20044;-70
2023/06/23 01:18:54;;;;;;;11.82;8.27;;;17.60;99.90;;;;;;5054778;28;20048;-70
2023/06/23 01:21:39;;;;;;;11.25;7.60;;;17.80;99.90;;;;;;5054630;28;20055;-70
2023/06/23 01:24:11;;;;;;;12.48;8.70;;;17.60;99.90;;;;;;5054562;28;20044;-70
2023/06/23 01:26:46;;;;;;;12.70;7.35;;;17.60;99.90;;;;;;5054480;28;20056;-70
2023/06/23 01:29:21;;;;;;;14.65;7.22;;;17.70;99.90;;;;;;5054525;28;20496;-70
2023/06/23 01:32:12;;;;;;;12.55;7.75;;;17.50;99.90;;;;;;5054825;28;20067;-70
2023/06/23 01:34:42;;;;;;;13.50;7.53;;;17.60;99.90;;;;;;5054023;28;20575;-70
2023/06/23 01:37:11;;;;;;;11.23;8.15;;;17.50;99.90;;;;;;5071669;28;20097;-70
2023/06/23 01:39:43;;;;;;;11.73;7.57;;;17.70;99.90;;;;;;5053903;28;20043;-70
2023/06/23 01:42:14;;;;;;;10.20;7.18;;;17.50;99.90;;;;;;5072258;28;20082;-70
2023/06/23 01:44:45;;;;;;;9.55;6.95;;;17.70;99.90;;;;;;5032725;28;20428;-70
2023/06/23 01:47:23;;;;;;;9.80;6.53;;;17.40;99.90;;;;;;5050557;28;20052;-70
2023/06/23 01:49:51;;;;;;;11.05;6.25;;;17.50;99.90;;;;;;5033131;28;20045;-70
2023/06/23 01:52:18;;;;;;;12.05;6.78;;;17.70;99.90;;;;;;5051838;28;20408;-69
2023/06/23 01:54:45;;;;;;;11.35;6.97;;;17.50;99.90;;;;;;5051828;28;20102;-71
2023/06/23 01:57:14;;;;;;;9.50;6.53;;;17.70;99.90;;;;;;5033430;28;20085;-71
2023/06/23 01:59:42;;;;;;;10.95;6.05;;;17.60;99.90;;;;;;5033573;28;20568;-70
2023/06/23 02:02:10;;;;;;;10.10;6.20;;;17.70;99.90;;;;;;5033517;28;20098;-70
2023/06/23 02:04:37;;;;;;;7.97;5.90;;;17.60;99.90;;;;;;5017402;28;20559;-70
2023/06/23 02:07:03;;;;;;;9.00;5.32;;;17.70;99.90;;;;;;5051586;28;20037;-70
2023/06/23 02:09:32;;;;;;;11.38;6.22;;;17.40;99.90;;;;;;5051464;28;20045;-70
2023/06/23 02:11:58;;;;;;;9.52;5.43;;;17.50;99.90;;;;;;5033635;28;20052;-70
2023/06/23 02:14:26;;;;;;;6.75;5.53;;;17.60;99.90;;;;;;5051352;28;20043;-70
2023/06/23 02:16:53;;;;;;;8.68;4.80;;;17.50;99.90;;;;;;5016866;28;20437;-70
2023/06/23 02:19:20;;;;;;;8.05;4.70;;;17.60;99.90;;;;;;5051343;28;20113;-70
2023/06/23 02:21:46;;;;;;;10.85;5.55;;;17.50;99.90;;;;;;5051706;28;20032;-70
2023/06/23 02:24:14;;;;;;;8.43;5.40;;;17.50;99.90;;;;;;5051297;28;20068;-71
2023/06/23 02:26:40;;;;;;;11.25;5.50;;;17.60;99.90;;;;;;5060038;28;20516;-70
2023/06/23 02:29:07;;;;;;;10.68;4.93;;;17.40;99.90;;;;;;5053635;28;20037;-70
2023/06/23 02:31:33;;;;;;;9.57;5.88;;;17.50;99.90;;;;;;5053007;28;20496;-70
2023/06/23 02:34:00;;;;;;;7.72;5.82;;;17.60;99.90;;;;;;5071566;28;20468;-70
2023/06/23 02:36:32;;;;;;;10.10;5.63;;;17.30;99.90;;;;;;5053348;28;20098;-70
2023/06/23 02:39:00;;;;;;;9.70;5.72;;;17.60;99.90;;;;;;5053539;28;20037;-70
2023/06/23 02:41:29;;;;;;;9.73;5.78;;;17.60;99.90;;;;;;5071072;28;20037;-70
2023/06/23 02:43:59;;;;;;;12.15;6.32;;;17.40;99.90;;;;;;5071055;28;20036;-70
2023/06/23 02:46:33;;;;;;;13.65;6.03;;;17.60;99.90;;;;;;5070927;28;20468;-69
2023/06/23 02:49:05;;;;;;;9.15;5.20;;;17.50;99.90;;;;;;5071462;28;20041;-69
2023/06/23 02:51:34;;;;;;;9.05;5.65;;;17.40;99.90;;;;;;5070996;28;20048;-70
2023/06/23 02:54:07;;;;;;;10.38;5.13;;;17.60;99.90;;;;;;5071228;28;20044;-70
2023/06/23 02:56:40;;;;;;;9.15;5.35;;;17.30;99.90;;;;;;5070772;28;20059;-70
2023/06/23 02:59:08;;;;;;;6.90;4.88;;;17.50;99.90;;;;;;5071526;28;20044;-70
2023/06/23 03:01:39;;;;;;;8.88;5.20;;;17.30;99.90;;;;;;5052679;28;20079;-70
2023/06/23 03:04:05;;;;;;;9.75;5.90;;;17.60;99.90;;;;;;5053346;28;20033;-70
2023/06/23 03:06:36;;;;;;;8.80;5.63;;;17.60;99.90;;;;;;5071221;28;20044;-70
2023/06/23 03:09:03;;;;;;;6.57;5.40;;;17.50;99.90;;;;;;5072339;28;20047;-70
2023/06/23 03:11:30;;;;;;;9.30;5.72;;;17.60;99.90;;;;;;5074676;28;20051;-70
2023/06/23 03:13:57;;;;;;;12.05;6.35;;;17.60;99.90;;;;;;5074788;28;20049;-70
2023/06/23 03:16:38;;;;;;;9.45;5.28;;;17.30;99.90;;;;;;5074834;28;20043;-70
2023/06/23 03:19:28;;;;;;;11.05;5.25;;;17.40;99.90;;;;;;5074914;28;20033;-70
2023/06/23 03:22:07;;;;;;;11.27;5.65;;;17.30;99.90;;;;;;5074760;28;20082;-70
2023/06/23 03:24:36;;;;;;;8.25;5.70;;;17.40;99.90;;;;;;5074643;28;20044;-70
2023/06/23 03:27:06;;;;;;;10.98;5.88;;;17.20;99.90;;;;;;5074317;28;20040;-70
2023/06/23 03:29:38;;;;;;;9.20;6.07;;;17.30;99.90;;;;;;5074193;28;20047;-70
2023/06/23 03:32:06;;;;;;;9.43;5.78;;;17.20;99.90;;;;;;5074877;28;20156;-70
2023/06/23 03:34:39;;;;;;;10.27;6.68;;;17.30;99.90;;;;;;5056295;28;20496;-70
2023/06/23 03:37:08;;;;;;;7.90;5.97;;;17.20;99.90;;;;;;5074289;28;20036;-70
2023/06/23 03:39:40;;;;;;;8.25;5.22;;;17.40;99.90;;;;;;5074282;28;20386;-70
2023/06/23 03:42:07;;;;;;;10.35;5.55;;;17.50;99.90;;;;;;5056697;28;20037;-70
2023/06/23 03:44:38;;;;;;;8.88;5.72;;;17.30;99.90;;;;;;5056381;28;20084;-70
2023/06/23 03:47:11;;;;;;;9.27;6.20;;;17.50;99.90;;;;;;5055935;28;20041;-70
2023/06/23 03:49:59;;;;;;;9.05;5.45;;;17.30;99.90;;;;;;5073873;28;20519;-71
2023/06/23 03:52:27;;;;;;;10.73;6.70;;;17.20;99.90;;;;;;5074345;28;20452;-70
2023/06/23 03:54:54;;;;;;;14.50;6.40;;;17.30;99.90;;;;;;5073762;28;20089;-70
2023/06/23 03:57:25;;;;;;;8.35;5.45;;;17.40;99.90;;;;;;5074062;28;20106;-70
2023/06/23 03:59:52;;;;;;;8.60;5.50;;;17.50;99.90;;;;;;5073741;28;20058;-70
2023/06/23 04:02:20;;;;;;;11.00;6.45;;;17.40;99.90;;;;;;5073579;28;20047;-70
2023/06/23 04:04:48;;;;;;;12.02;6.35;;;17.30;99.90;;;;;;5073830;28;20090;-70
2023/06/23 04:07:15;;;;;;;9.43;6.50;;;17.30;99.90;;;;;;5073488;28;20124;-71
2023/06/23 04:09:45;;;;;;;9.40;6.10;;;17.30;99.90;;;;;;5055628;28;20076;-70
2023/06/23 04:12:13;;;;;;;10.10;6.60;;;17.30;99.90;;;;;;5055913;28;20051;-70
2023/06/23 04:14:41;;;;;;;12.43;7.00;;;17.50;99.90;;;;;;5073811;28;20044;-70
2023/06/23 04:17:11;;;;;;;10.23;6.45;;;17.50;99.90;;;;;;5073481;28;20102;-70
2023/06/23 04:19:40;;;;;;;14.05;6.20;;;17.30;99.90;;;;;;5072973;28;20095;-70
2023/06/23 04:22:08;;;;;;;10.02;6.03;;;17.40;99.90;;;;;;5073894;28;20036;-70
2023/06/23 04:24:37;;;;;;;11.95;6.20;;;17.40;99.90;;;;;;5073224;28;20492;-71
2023/06/23 04:27:04;;;;;;;9.93;6.60;;;17.60;99.90;;;;;;5055175;28;20048;-70
2023/06/23 04:29:33;;;;;;;9.20;5.82;;;17.50;99.90;;;;;;5055246;28;20044;-70
2023/06/23 04:32:00;;;;;;;8.45;6.13;;;17.60;99.90;;;;;;5055518;28;20492;-70
2023/06/23 04:34:25;;;;;;;10.88;7.10;;;17.50;99.90;;;;;;5073012;28;20036;-70
2023/06/23 04:37:01;;;;;;;8.20;5.95;;;17.70;99.90;;;;;;5054902;28;20048;-70
2023/06/23 04:39:31;;;;;;;12.32;6.97;;;17.50;99.90;;;;;;5073185;28;20060;-70
2023/06/23 04:42:02;;;;;;;10.88;6.55;;;17.70;99.90;;;;;;5073356;28;20039;-70
2023/06/23 04:44:32;;;;;;;11.40;6.50;;;17.40;99.90;;;;;;5073147;28;20124;-70
2023/06/23 04:47:01;;;;;;;9.68;6.35;;;17.60;99.90;;;;;;5054836;28;20047;-70
2023/06/23 04:49:30;;;;;;;8.80;5.97;;;17.70;99.90;;;;;;5072890;28;20079;-70
2023/06/23 04:52:01;;;;;;;10.10;5.57;;;17.50;99.90;;;;;;5055359;28;20585;-70
2023/06/23 04:54:31;;;;;;;9.63;6.38;;;17.50;99.90;;;;;;5022220;28;20045;-70
2023/06/23 04:57:02;;;;;;;11.13;6.13;;;17.60;99.90;;;;;;5072608;28;20044;-70
2023/06/23 04:59:33;;;;;;;10.13;6.30;;;17.60;99.90;;;;;;5071987;28;20090;-70
2023/06/23 05:02:01;;;;;;;10.13;6.32;;;17.50;99.90;;;;;;5055312;28;20072;-70
2023/06/23 05:04:28;;;;;;;10.25;6.72;;;17.70;99.90;;;;;;5072914;28;20043;-70
2023/06/23 05:06:55;;;;;;;11.05;5.60;;;17.70;99.90;;;;;;5054504;28;20130;-70
2023/06/23 05:09:22;;;;;;;12.18;6.47;;;17.60;99.90;;;;;;5054294;28;20064;-70
2023/06/23 05:11:49;;;;;;;10.65;6.85;;;17.50;99.90;;;;;;5072485;28;20044;-70
2023/06/23 05:14:16;;;;;;;9.05;6.15;;;17.40;99.90;;;;;;5072710;28;20037;-69
2023/06/23 05:16:43;;;;;;;8.77;6.38;;;17.40;99.90;;;;;;5072214;28;20052;-70
2023/06/23 05:19:11;;;;;;;9.10;5.97;;;17.70;99.90;;;;;;5072738;28;20169;-70
2023/06/23 05:21:38;;;;;;;11.68;6.10;;;17.50;99.90;;;;;;5054141;28;20035;-70
2023/06/23 05:24:08;;;;;;;9.85;6.28;;;17.60;99.90;;;;;;5071459;28;20067;-70
2023/06/23 05:26:35;;;;;;;9.13;5.72;;;17.70;99.90;;;;;;5063834;28;20076;-70
2023/06/23 05:29:06;;;;;;;10.82;5.93;;;17.60;99.90;;;;;;5072534;28;20036;-70
2023/06/23 05:31:38;;;;;;;8.95;5.88;;;17.70;99.90;;;;;;5070045;28;20044;-70
2023/06/23 05:34:07;;;;;;;7.80;5.63;;;17.70;99.90;;;;;;5072030;28;20047;-70
2023/06/23 05:36:36;;;;;;;7.93;5.60;;;17.60;99.90;;;;;;5063546;28;20043;-70
2023/06/23 05:39:04;;;;;;;9.07;5.75;;;17.60;99.90;;;;;;5072051;28;20534;-70
2023/06/23 05:41:30;;;;;;;7.53;5.28;;;17.70;99.90;;;;;;5070695;28;20090;-70
2023/06/23 05:43:55;;;;;;;7.50;5.28;;;17.80;99.90;;;;;;5071678;28;20036;-69
2023/06/23 05:46:24;;;;;;;9.73;5.72;;;18.00;99.90;;;;;;5071905;28;20041;-70
2023/06/23 05:49:00;;;;;;;8.05;5.38;;;17.80;99.90;;;;;;5070337;28;20046;-69
2023/06/23 05:51:28;;;;;;;8.73;5.40;;;17.80;99.90;;;;;;5070512;28;20048;-70
2023/06/23 05:53:57;;;;;;;11.43;5.97;;;18.00;99.90;;;;;;5070434;28;20090;-70
2023/06/23 05:56:35;;;;;;;7.18;4.97;;;18.10;99.90;;;;;;5070579;28;20053;-70
2023/06/23 05:59:05;;;;;;;9.70;5.20;;;17.80;99.90;;;;;;5070586;28;20047;-69
2023/06/23 06:01:33;;;;;;;9.02;5.50;;;17.90;99.90;;;;;;5064680;28;20039;-69
2023/06/23 06:04:14;;;;;;;8.15;5.32;;;18.10;99.90;;;;;;5062158;28;20065;-70
2023/06/23 06:06:41;;;;;;;7.18;6.03;;;18.10;99.90;;;;;;5070459;28;20445;-70
2023/06/23 06:09:10;;;;;;;7.97;5.68;;;18.00;99.90;;;;;;5070339;28;20097;-70
2023/06/23 06:11:38;;;;;;;10.43;5.57;;;18.20;99.90;;;;;;5070287;28;20577;-70
2023/06/23 06:14:07;;;;;;;8.80;5.70;;;18.40;99.90;;;;;;5071463;28;20585;-69
2023/06/23 06:16:35;;;;;;;5.80;4.72;;;18.40;99.90;;;;;;5070000;28;20148;-70
2023/06/23 06:19:01;;;;;;;7.38;4.93;;;18.40;99.90;;;;;;5071841;28;20040;-69
2023/06/23 06:21:29;;;;;;;9.38;5.30;;;18.60;99.90;;;;;;5071362;28;20044;-70
2023/06/23 06:23:57;;;;;;;8.77;5.82;;;18.90;99.90;;;;;;5071525;28;20040;-69
2023/06/23 06:26:24;;;;;;;5.75;4.78;;;19.20;99.90;;;;;;5070224;28;20041;-69
2023/06/23 06:28:52;;;;;;;8.65;4.93;;;19.50;99.90;;;;;;5053556;28;20430;-70
2023/06/23 06:31:19;;;;;;;5.50;4.85;;;20.10;99.90;;;;;;5069793;28;20094;-70
2023/06/23 06:33:48;;;;;;;7.13;4.90;;;20.40;99.90;;;;;;5071377;28;20043;-70
2023/06/23 06:36:15;;;;;;;7.25;5.15;;;20.60;99.90;;;;;;5071418;28;20079;-70
2023/06/23 06:38:42;;;;;;;6.30;4.53;;;20.50;99.90;;;;;;5071161;28;20032;-70
2023/06/23 06:41:08;;;;;;;7.82;4.82;;;20.40;99.90;;;;;;5071148;28;20036;-71
2023/06/23 06:43:35;;;;;;;11.05;5.20;;;20.50;99.90;;;;;;5073675;28;20468;-70
2023/06/23 06:46:03;;;;;;;7.47;4.97;;;20.80;99.90;;;;;;5073128;28;20119;-70
2023/06/23 06:48:31;;;;;;;6.70;4.80;;;21.20;99.90;;;;;;5048692;28;20039;-70
2023/06/23 06:50:57;;;;;;;8.60;4.85;;;21.40;99.90;;;;;;5075123;28;20048;-70
2023/06/23 06:53:24;;;;;;;9.57;4.93;;;21.60;99.90;;;;;;5075258;28;20045;-70
2023/06/23 06:55:51;;;;;;;9.57;4.88;;;21.80;99.90;;;;;;5075160;28;20412;-70
2023/06/23 06:58:17;;;;;;;10.75;5.13;;;22.00;99.90;;;;;;5074769;28;20512;-69
2023/06/23 07:00:43;;;;;;;5.45;4.88;;;22.00;99.90;;;;;;5074838;28;20120;-70
2023/06/23 07:03:11;;;;;;;11.02;4.32;;;22.20;99.90;;;;;;5075231;28;20028;-70
2023/06/23 07:05:36;;;;;;;5.70;3.88;;;22.40;99.90;;;;;;5054230;28;20049;-71
2023/06/23 07:08:03;;;;;;;5.63;3.53;;;22.70;99.90;;;;;;5054798;28;20147;-69
2023/06/23 07:10:29;;;;;;;6.40;4.32;;;22.90;99.90;;;;;;5054431;28;20413;-70
2023/06/23 07:12:54;;;;;;;7.57;4.15;;;23.20;99.90;;;;;;5054805;28;20045;-69
2023/06/23 07:15:20;;;;;;;4.72;3.85;;;23.20;99.90;;;;;;5055137;28;20052;-70
2023/06/23 07:17:46;;;;;;;7.80;4.07;;;23.30;99.90;;;;;;5054703;28;20471;-70
2023/06/23 07:20:11;;;;;;;8.07;4.18;;;23.30;99.90;;;;;;5054572;28;20099;-70
2023/06/23 07:22:37;;;;;;;7.88;3.95;;;23.30;99.90;;;;;;5054773;28;20040;-69
2023/06/23 07:25:03;;;;;;;5.47;3.78;;;23.40;99.90;;;;;;5054605;28;20060;-70
2023/06/23 07:27:28;;;;;;;6.88;5.10;;;23.50;99.90;;;;;;5036367;28;20052;-70
2023/06/23 07:29:54;;;;;;;5.32;3.63;;;23.60;99.90;;;;;;5054373;28;20036;-70
2023/06/23 07:32:20;;;;;;;8.02;4.65;;;23.70;99.90;;;;;;5054602;28;20040;-70
2023/06/23 07:34:45;;;;;;;5.97;3.97;;;24.00;99.90;;;;;;5036448;28;20175;-70
2023/06/23 07:37:11;;;;;;;6.28;3.85;;;24.20;99.90;;;;;;5035990;28;20044;-70
2023/06/23 07:39:37;;;;;;;7.70;4.50;;;24.30;99.90;;;;;;5053697;28;20110;-70
2023/06/23 07:42:03;;;;;;;7.63;3.92;;;24.40;99.90;;;;;;5059632;28;20029;-70
2023/06/23 07:44:31;;;;;;;7.85;3.58;;;24.40;99.90;;;;;;5063691;28;20032;-69
2023/06/23 07:46:59;;;;;;;7.15;4.00;;;24.60;99.90;;;;;;5061334;28;20106;-69
2023/06/23 07:49:26;;;;;;;4.72;3.50;;;24.90;99.90;;;;;;5035823;28;20095;-69
2023/06/23 07:51:52;;;;;;;5.65;4.18;;;25.10;99.90;;;;;;5020257;28;20049;-69
2023/06/23 07:54:17;;;;;;;5.80;3.53;;;25.10;99.90;;;;;;5053153;28;20120;-69
2023/06/23 07:56:43;;;;;;;7.25;3.95;;;25.30;99.90;;;;;;5053893;28;20076;-69
2023/06/23 07:59:08;;;;;;;5.88;3.53;;;25.30;99.90;;;;;;5054066;28;20032;-70
2023/06/23 08:01:34;;;;;;;5.95;4.05;;;25.40;99.40;;;;;;5053673;28;20045;-69
2023/06/23 08:03:59;;;;;;;11.30;4.22;;;25.40;98.90;;;;;;5035466;28;20382;-69
2023/06/23 08:06:25;;;;;;;5.22;3.85;;;25.30;98.00;;;;;;5036439;28;20127;-69
2023/06/23 08:08:51;;;;;;;5.13;3.63;;;25.50;98.20;;;;;;5053330;28;20037;-69
2023/06/23 08:11:17;;;;;;;4.70;3.33;;;25.50;98.40;;;;;;5053805;28;20045;-71
2023/06/23 08:13:42;;;;;;;3.80;2.95;;;25.50;97.60;;;;;;5035632;28;20033;-69
2023/06/23 08:16:08;;;;;;;6.50;2.90;;;25.70;97.20;;;;;;5053946;28;20076;-69
2023/06/23 08:18:34;;;;;;;5.95;3.60;;;25.70;95.20;;;;;;5053414;28;20059;-69
2023/06/23 08:20:59;;;;;;;6.60;3.35;;;25.80;94.70;;;;;;5053261;28;20052;-69
2023/06/23 08:23:25;;;;;;;5.20;3.30;;;25.90;94.00;;;;;;5053321;28;20048;-69
2023/06/23 08:25:50;;;;;;;6.30;3.20;;;26.00;94.00;;;;;;5053607;28;20047;-70
2023/06/23 08:28:16;;;;;;;4.82;2.83;;;26.00;93.40;;;;;;5035392;28;20051;-69
2023/06/23 08:30:41;;;;;;;5.30;3.17;;;26.10;93.90;;;;;;5053362;28;20086;-70
2023/06/23 08:33:07;;;;;;;3.88;2.90;;;26.20;93.40;;;;;;5053285;28;20090;-69
2023/06/23 08:35:33;;;;;;;3.65;3.20;;;26.10;92.10;;;;;;5053466;28;20044;-70
2023/06/23 08:37:58;;;;;;;4.78;3.05;;;26.30;90.20;;;;;;5035048;28;20032;-69
2023/06/23 08:40:24;;;;;;;5.93;3.25;;;26.20;87.30;;;;;;5053221;28;20108;-69
2023/06/23 08:42:50;;;;;;;3.83;3.08;;;26.20;87.30;;;;;;5034931;28;20404;-69
2023/06/23 08:45:18;;;;;;;5.18;2.95;;;26.30;83.90;;;;;;5051410;28;20036;-70
2023/06/23 08:47:48;;;;;;;6.13;2.97;;;26.50;85.60;;;;;;5054909;28;20123;-69
2023/06/23 08:50:14;;;;;;;3.45;2.85;;;26.50;84.10;;;;;;5072679;28;20052;-70
2023/06/23 08:52:41;;;;;;;3.60;2.80;;;26.60;84.00;;;;;;5072780;28;20033;-70
2023/06/23 08:55:08;;;;;;;4.18;3.42;;;26.70;84.00;;;;;;5065367;28;20107;-70
2023/06/23 08:57:36;;;;;;;4.82;3.10;;;26.70;81.80;;;;;;5063118;28;20063;-69
2023/06/23 09:00:02;;;;;;;3.45;2.70;;;26.50;80.20;;;;;;5043364;28;20121;-69
2023/06/23 09:02:28;;;;;;;3.20;2.75;;;26.70;84.00;;;;;;5066753;28;20115;-70
2023/06/23 09:04:53;;;;;;;3.80;2.63;;;27.00;84.10;;;;;;5043509;28;20587;-69
2023/06/23 09:07:19;;;;;;;3.38;2.83;;;27.40;83.40;;;;;;5060992;28;20037;-70
2023/06/23 09:09:48;;;;;;;4.57;2.65;;;26.90;81.00;;;;;;5044767;28;20123;-69
2023/06/23 09:12:20;;;;;;;4.30;2.58;;;27.20;82.00;;;;;;5061188;28;20044;-69
2023/06/23 09:14:47;;;;;;;;;;;27.40;80.40;;;;;;5044022;28;20052;-70
2023/06/23 09:17:13;;;;;;;4.57;2.72;;;27.30;77.90;;;;;;5039071;28;19935;-70
2023/06/23 09:19:42;;;;;;;4.20;2.70;;;27.30;79.70;;;;;;5045613;28;20111;-70
2023/06/23 09:22:09;;;;;;;4.78;3.25;;;27.40;79.20;;;;;;5072511;28;20040;-70
2023/06/23 09:24:44;;;;;;;9.23;3.45;;;27.30;78.00;;;;;;5054481;28;20051;-70
2023/06/23 09:27:10;;;;;;;4.35;3.00;;;27.30;77.90;;;;;;5072198;28;20398;-70
2023/06/23 09:29:37;;;;;;;3.78;2.95;;;27.30;79.40;;;;;;5054134;28;20058;-70
2023/06/23 09:32:04;;;;;;;6.15;3.80;;;27.30;81.50;;;;;;5054393;28;20036;-70
2023/06/23 09:34:33;;;;;;;5.32;3.25;;;27.20;83.40;;;;;;5071976;28;20386;-70
2023/06/23 09:37:07;;;;;;;5.00;3.35;;;26.80;85.20;;;;;;5071939;28;20040;-70
2023/06/23 09:39:37;;;;;;;4.93;2.60;;;26.60;82.90;;;;;;5071921;28;20411;-70
2023/06/23 09:42:11;;;;;;;5.07;3.40;;;26.80;84.70;;;;;;5072244;28;20037;-70
2023/06/23 09:44:39;;;;;;;5.45;2.80;;;26.80;82.20;;;;;;5068750;28;20505;-70
2023/06/23 09:47:06;;;;;;;5.35;2.88;;;26.80;86.00;;;;;;5060246;28;20428;-70
2023/06/23 09:49:43;;;;;;;3.10;2.38;;;26.90;82.70;;;;;;5062312;28;20039;-70
2023/06/23 09:52:12;;;;;;;4.35;2.33;;;26.80;76.40;;;;;;5063168;28;20047;-70
2023/06/23 09:54:39;;;;;;;5.07;3.08;;;26.60;76.20;;;;;;5071833;28;20059;-70
2023/06/23 09:57:23;;;;;;;3.08;2.25;;;26.50;75.50;;;;;;5051044;28;20044;-70
2023/06/23 09:59:52;;;;;;;3.78;2.58;;;26.60;76.30;;;;;;5065102;28;20037;-70
2023/06/23 10:02:24;;;;;;;4.25;1.95;;;26.60;75.60;;;;;;5054003;28;20047;-70
2023/06/23 10:04:57;;;;;;;3.97;2.15;;;26.60;72.90;;;;;;5053799;28;20036;-70
2023/06/23 10:07:25;;;;;;;3.38;2.30;;;26.60;70.50;;;;;;5071690;28;20048;-70
2023/06/23 10:09:58;;;;;;;2.55;2.17;;;26.60;71.80;;;;;;5071225;28;20531;-70
2023/06/23 10:12:27;;;;;;;3.95;2.35;;;26.50;69.50;;;;;;5071988;28;20050;-69
2023/06/23 10:14:55;;;;;;;3.45;2.50;;;26.20;69.40;;;;;;5053548;28;20044;-70
2023/06/23 10:17:21;;;;;;;4.18;2.65;;;26.30;70.20;;;;;;5052915;28;20041;-70
2023/06/23 10:19:48;;;;;;;4.53;2.72;;;26.20;73.80;;;;;;5071354;28;20365;-70
2023/06/23 10:22:16;;;;;;;3.33;2.58;;;26.10;77.30;;;;;;5071551;28;20036;-70
2023/06/23 10:24:45;;;;;;;3.80;2.40;;;26.10;78.60;;;;;;5071687;28;20047;-70
2023/06/23 10:27:16;;;;;;;4.97;2.50;;;26.00;81.70;;;;;;5071340;28;20044;-69
2023/06/23 10:29:47;;;;;;;4.13;2.60;;;26.10;81.60;;;;;;5067847;28;20055;-69
2023/06/23 10:32:14;;;;;;;4.07;2.67;;;25.80;80.00;;;;;;5071664;28;20161;-70
2023/06/23 10:34:41;;;;;;;5.82;3.10;;;25.90;83.60;;;;;;5070394;28;20037;-70
2023/06/23 10:37:10;;;;;;;3.42;2.35;;;26.00;84.50;;;;;;5071066;28;20050;-69
2023/06/23 10:39:38;;;;;;;4.43;3.42;;;25.80;85.30;;;;;;5069788;28;20492;-69
2023/06/23 10:42:07;;;;;;;5.60;3.25;;;25.70;85.10;;;;;;5071611;28;20070;-70
2023/06/23 10:44:33;;;;;;;5.28;3.17;;;25.70;85.50;;;;;;5071059;28;20055;-70
2023/06/23 10:46:58;;;;;;;4.05;3.00;;;25.80;86.90;;;;;;5068055;28;20488;-70
2023/06/23 10:49:24;;;;;;;4.10;2.78;;;25.70;86.50;;;;;;5070762;28;20036;-70
2023/06/23 10:51:50;;;;;;;4.43;3.05;;;25.80;85.90;;;;;;5071719;28;20056;-70
2023/06/23 10:54:26;;;;;;;4.13;3.72;;;25.80;86.90;;;;;;5071152;28;20123;-70
2023/06/23 10:56:54;;;;;;;3.97;3.35;;;25.70;88.30;;;;;;5063880;28;20261;-70
2023/06/23 10:59:25;;;;;;;5.47;3.38;;;25.80;89.50;;;;;;5064185;28;20115;-69
2023/06/23 11:02:00;;;;;;;6.07;3.17;;;25.80;90.20;;;;;;5045961;28;20041;-69
2023/06/23 11:04:27;;;;;;;4.13;3.40;;;25.60;88.60;;;;;;5071059;28;20090;-70
2023/06/23 11:07:07;;;;;;;5.53;3.20;;;25.60;89.80;;;;;;5070714;28;20088;-69
2023/06/23 11:09:49;;;;;;;5.30;4.13;;;25.60;90.20;;;;;;5070406;28;20423;-70
2023/06/23 11:12:29;;;;;;;4.20;3.80;;;25.70;90.60;;;;;;5046863;28;20044;-70
2023/06/23 11:15:24;;;;;;;7.25;3.78;;;25.50;90.80;;;;;;5048591;28;20050;-70
2023/06/23 11:17:59;;;;;;;7.30;4.47;;;25.40;91.00;;;;;;5047812;28;20540;-70
2023/06/23 11:20:24;;;;;;;4.80;3.35;;;25.50;90.50;;;;;;5052309;28;20048;-70
2023/06/23 11:23:09;;;;;;;4.75;3.60;;;25.40;90.10;;;;;;5070881;28;20040;-70
2023/06/23 11:25:44;;;;;;;5.63;3.78;;;25.40;88.80;;;;;;5071023;28;20609;-70
2023/06/23 11:28:24;;;;;;;6.20;4.07;;;25.20;90.10;;;;;;5070131;28;20561;-71
2023/06/23 11:31:11;;;;;;;5.35;3.75;;;25.00;91.20;;;;;;5067955;28;20044;-70
2023/06/23 11:33:39;;;;;;;7.43;4.97;;;24.80;91.40;;;;;;5063490;28;20464;-70
2023/06/23 11:36:06;;;;;;;8.15;4.20;;;24.90;91.70;;;;;;5074443;28;20076;-70
2023/06/23 11:38:33;;;;;;;4.97;4.47;;;25.10;92.60;;;;;;5073904;28;20448;-70
2023/06/23 11:40:59;;;;;;;6.03;3.97;;;25.00;92.80;;;;;;5073904;28;20115;-70
2023/06/23 11:43:25;;;;;;;5.40;3.60;;;25.20;92.70;;;;;;5073896;28;20040;-70
2023/06/23 11:46:00;;;;;;;4.70;4.15;;;25.30;91.60;;;;;;5074379;28;20037;-70
2023/06/23 11:48:29;;;;;;;9.00;4.72;;;25.40;92.10;;;;;;5055839;28;20546;-70
2023/06/23 11:50:55;;;;;;;7.35;5.25;;;25.30;92.60;;;;;;5069803;28;20036;-71
2023/06/23 11:53:21;;;;;;;5.95;4.72;;;25.30;93.10;;;;;;5070295;28;20044;-70
2023/06/23 11:55:49;;;;;;;7.20;4.22;;;25.40;92.50;;;;;;5072402;28;20082;-72
2023/06/23 11:58:16;;;;;;;5.95;4.30;;;25.30;92.40;;;;;;5073437;28;20094;-70
2023/06/23 12:00:42;;;;;;;5.60;4.22;;;25.40;91.00;;;;;;5073806;28;20040;-75
2023/06/23 12:03:14;;;;;;;5.97;4.50;;;25.50;91.80;;;;;;5055655;28;20127;-78
2023/06/23 12:05:43;;;;;;;5.40;4.53;;;25.60;92.00;;;;;;5056172;28;20036;-75
2023/06/23 12:08:09;;;;;;;7.60;5.40;;;25.50;92.10;;;;;;5055607;28;20044;-70
2023/06/23 12:10:41;;;;;;;7.88;5.03;;;25.40;92.20;;;;;;5055423;28;20125;-70
2023/06/23 12:13:11;;;;;;;10.18;5.05;;;25.30;91.80;;;;;;5055817;28;20067;-70
2023/06/23 12:15:37;;;;;;;6.35;4.90;;;25.30;92.40;;;;;;5073931;28;20082;-69
2023/06/23 12:18:04;;;;;;;7.80;4.82;;;25.20;92.60;;;;;;5072143;28;20047;-70
2023/06/23 12:20:36;;;;;;;6.60;5.07;;;25.10;92.90;;;;;;5072256;28;20058;-69
2023/06/23 12:23:11;;;;;;;8.70;5.15;;;25.10;91.70;;;;;;5048281;28;20042;-68
2023/06/23 12:25:52;;;;;;;7.38;3.95;;;24.90;91.30;;;;;;5073490;28;20036;-69
2023/06/23 12:28:19;;;;;;;6.90;4.18;;;25.00;84.90;;;;;;5055182;28;20059;-69
2023/06/23 12:30:48;;;;;;;7.60;3.90;;;25.00;87.20;;;;;;5073064;28;20041;-69
2023/06/23 12:33:21;;;;;;;6.13;4.50;;;25.00;84.50;;;;;;5073056;28;20074;-71
2023/06/23 12:35:57;;;;;;;4.43;4.03;;;25.00;84.60;;;;;;5073522;28;20044;-70
2023/06/23 12:38:23;;;;;;;6.45;4.30;;;25.00;83.60;;;;;;5054790;28;20049;-70
2023/06/23 12:40:49;;;;;;;5.63;3.13;;;25.10;78.50;;;;;;5054042;28;20119;-70
2023/06/23 12:43:17;;;;;;;3.67;3.00;;;25.10;73.40;;;;;;5072894;28;20548;-70
2023/06/23 12:45:43;;;;;;;4.80;3.22;;;25.10;70.80;;;;;;5072952;28;20036;-71
2023/06/23 12:48:09;;;;;;;5.05;3.25;;;25.20;71.50;;;;;;5072509;28;20043;-70
2023/06/23 12:50:41;;;;;;;4.55;3.00;;;25.20;71.80;;;;;;5069992;28;20093;-70
2023/06/23 12:53:07;;;;;;;5.43;3.28;;;25.30;71.10;;;;;;5073535;28;20041;-70